Time;durP1;ratioP1;P1;durP2;ratioP2;P2;SDS_P1;SDS_P2;PMS_P1;PMS_P2;Temp;Humidity;BMP_temperature;BMP_pressure;BME280_temperature;BME280_humidity;BME280_pressure;Samples;Min_cycle;Max_cycle;Signal;HPM_P1;HPM_P2
2023/04/02 00:00:36;;;;;;;0.50;0.50;;;11.10;52.60;;;;;;20595;6753;276588;-74
2023/04/02 00:03:14;;;;;;;0.62;0.47;;;11.10;52.60;;;;;;20539;6809;312598;-74
2023/04/02 00:05:49;;;;;;;0.47;0.47;;;11.20;52.30;;;;;;20818;6753;117064;-72
2023/04/02 00:08:37;;;;;;;2.03;0.30;;;10.90;52.70;;;;;;20819;6753;117048;-72
2023/04/02 00:11:13;;;;;;;1.08;0.50;;;10.50;53.60;;;;;;20599;6753;334719;-72
2023/04/02 00:13:45;;;;;;;0.33;0.33;;;10.50;53.60;;;;;;20731;6810;117425;-72
2023/04/02 00:16:22;;;;;;;0.90;0.43;;;10.50;53.80;;;;;;20595;6753;310416;-72
2023/04/02 00:18:57;;;;;;;0.87;0.30;;;10.50;53.80;;;;;;20799;6753;117925;-72
2023/04/02 00:21:33;;;;;;;0.43;0.40;;;10.30;53.90;;;;;;20812;6753;117219;-72
2023/04/02 00:24:21;;;;;;;1.27;0.43;;;10.10;54.50;;;;;;20728;6753;117980;-72
2023/04/02 00:26:50;;;;;;;0.50;0.40;;;9.80;56.00;;;;;;20790;6753;117254;-72
2023/04/02 00:29:26;;;;;;;0.20;0.20;;;9.70;56.60;;;;;;20816;6753;116850;-72
2023/04/02 00:32:01;;;;;;;0.50;0.50;;;9.50;57.00;;;;;;20811;6753;117776;-72
2023/04/02 00:34:37;;;;;;;1.80;0.60;;;9.40;57.30;;;;;;20678;6753;117378;-72
2023/04/02 00:37:22;;;;;;;0.57;0.40;;;9.30;57.60;;;;;;20815;6753;117985;-72
2023/04/02 00:40:05;;;;;;;0.30;0.30;;;9.20;57.90;;;;;;20812;6753;116872;-72
2023/04/02 00:42:38;;;;;;;0.40;0.40;;;9.10;58.00;;;;;;20579;6753;305346;-72
2023/04/02 00:45:13;;;;;;;0.30;0.30;;;9.40;57.30;;;;;;20646;6753;123337;-72
2023/04/02 00:47:48;;;;;;;0.40;0.40;;;9.50;57.10;;;;;;20812;6753;116907;-72
2023/04/02 00:50:33;;;;;;;0.50;0.40;;;9.40;57.30;;;;;;20607;6753;305581;-72
2023/04/02 00:53:09;;;;;;;0.70;0.40;;;9.60;57.00;;;;;;20576;6758;283074;-72
2023/04/02 00:55:47;;;;;;;0.30;0.30;;;10.00;54.50;;;;;;20583;6811;295643;-72
2023/04/02 00:58:33;;;;;;;0.50;0.50;;;10.30;53.50;;;;;;20597;6754;306319;-72
2023/04/02 01:01:15;;;;;;;0.50;0.50;;;10.50;53.00;;;;;;20594;6756;279190;-72
2023/04/02 01:03:52;;;;;;;0.47;0.47;;;10.70;52.40;;;;;;20749;6754;117161;-73
2023/04/02 01:06:28;;;;;;;0.65;0.50;;;10.40;52.80;;;;;;20503;6767;307872;-73
2023/04/02 01:09:10;;;;;;;0.40;0.40;;;10.40;53.40;;;;;;20809;6762;117197;-73
2023/04/02 01:12:18;;;;;;;0.30;0.30;;;10.20;53.10;;;;;;20788;6804;117106;-72
2023/04/02 01:15:07;;;;;;;0.40;0.40;;;9.90;54.80;;;;;;20626;6747;117655;-72
2023/04/02 01:18:08;;;;;;;0.50;0.50;;;9.50;55.50;;;;;;20626;6747;278365;-73
2023/04/02 01:20:54;;;;;;;0.80;0.50;;;9.70;55.50;;;;;;20862;6738;117425;-73
2023/04/02 01:23:46;;;;;;;0.37;0.37;;;9.60;55.60;;;;;;20799;6751;117362;-73
2023/04/02 01:26:21;;;;;;;0.30;0.30;;;9.30;56.00;;;;;;20773;6763;117113;-73
2023/04/02 01:29:12;;;;;;;0.40;0.40;;;9.30;55.70;;;;;;20546;6763;308391;-73
2023/04/02 01:31:47;;;;;;;0.30;0.30;;;9.30;56.20;;;;;;20831;6747;117307;-72
2023/04/02 01:34:23;;;;;;;0.50;0.50;;;9.40;56.00;;;;;;20568;6735;336716;-72
2023/04/02 01:37:05;;;;;;;0.50;0.50;;;9.40;55.90;;;;;;20846;6734;120766;-72
2023/04/02 01:39:50;;;;;;;0.50;0.50;;;9.40;56.00;;;;;;20632;6759;310549;-73
2023/04/02 01:42:32;;;;;;;0.57;0.57;;;9.50;56.10;;;;;;20710;6762;117183;-72
2023/04/02 01:45:08;;;;;;;0.43;0.43;;;9.30;56.90;;;;;;20541;6780;117552;-72
2023/04/02 01:47:44;;;;;;;0.73;0.50;;;9.20;56.80;;;;;;20734;6769;117017;-72
2023/04/02 01:50:35;;;;;;;0.52;0.52;;;9.10;57.40;;;;;;20541;6771;328531;-72
2023/04/02 01:53:08;;;;;;;0.93;0.77;;;9.30;57.50;;;;;;20524;6779;309107;-74
2023/04/02 01:55:47;;;;;;;0.60;0.60;;;9.70;56.60;;;;;;20814;6746;117156;-74
2023/04/02 01:58:24;;;;;;;1.00;0.80;;;9.70;56.50;;;;;;20812;6751;116809;-74
2023/04/02 02:01:04;;;;;;;0.95;0.80;;;9.40;57.00;;;;;;20545;6761;312187;-74
2023/04/02 02:03:39;;;;;;;0.87;0.70;;;9.60;57.20;;;;;;20744;6757;117309;-73
2023/04/02 02:06:15;;;;;;;0.90;0.77;;;9.50;57.20;;;;;;20612;6733;307591;-75
2023/04/02 02:08:54;;;;;;;1.35;0.75;;;9.60;57.10;;;;;;20562;6748;310496;-74
2023/04/02 02:11:30;;;;;;;0.85;0.60;;;10.20;54.80;;;;;;20520;6776;336651;-74
2023/04/02 02:14:23;;;;;;;0.67;0.53;;;10.20;55.00;;;;;;20514;6777;121013;-73
2023/04/02 02:17:00;;;;;;;0.90;0.60;;;9.70;56.70;;;;;;20710;6758;117653;-72
2023/04/02 02:19:35;;;;;;;0.70;0.70;;;9.70;56.70;;;;;;20557;6755;306477;-72
2023/04/02 02:22:13;;;;;;;1.90;0.90;;;9.80;56.70;;;;;;20586;6755;277017;-72
2023/04/02 02:24:49;;;;;;;0.57;0.57;;;10.20;55.10;;;;;;20650;6755;122627;-72
2023/04/02 02:27:25;;;;;;;0.90;0.80;;;9.80;56.80;;;;;;20797;6755;116925;-73
2023/04/02 02:30:01;;;;;;;1.20;0.60;;;9.80;56.80;;;;;;20537;6770;279760;-75
2023/04/02 02:32:36;;;;;;;0.77;0.63;;;10.00;55.80;;;;;;20585;6763;307360;-73
2023/04/02 02:35:15;;;;;;;0.87;0.70;;;10.30;55.00;;;;;;20428;6750;280420;-73
2023/04/02 02:37:56;;;;;;;2.83;0.80;;;10.80;53.30;;;;;;20567;6761;336122;-75
2023/04/02 02:40:34;;;;;;;0.93;0.70;;;10.80;53.80;;;;;;20459;6834;119507;-73
2023/04/02 02:43:11;;;;;;;0.93;0.63;;;10.60;54.00;;;;;;20733;6776;118412;-74
2023/04/02 02:45:47;;;;;;;0.60;0.60;;;10.30;54.80;;;;;;20823;6746;122777;-75
2023/04/02 02:48:22;;;;;;;0.50;0.50;;;10.00;55.40;;;;;;20816;6748;119982;-73
2023/04/02 02:50:58;;;;;;;0.93;0.70;;;9.80;57.00;;;;;;20784;6750;118479;-76
2023/04/02 02:53:34;;;;;;;0.63;0.63;;;9.70;57.50;;;;;;20762;6756;117328;-72
2023/04/02 02:56:09;;;;;;;0.77;0.70;;;9.60;57.90;;;;;;20753;6766;116953;-73
2023/04/02 02:58:47;;;;;;;0.70;0.70;;;9.50;58.30;;;;;;20535;6761;306226;-73
2023/04/02 03:01:20;;;;;;;0.90;0.80;;;9.70;57.70;;;;;;20783;6761;117050;-73
2023/04/02 03:03:56;;;;;;;0.77;0.43;;;9.70;57.40;;;;;;20654;6791;117493;-73
2023/04/02 03:06:35;;;;;;;1.07;0.60;;;9.60;57.70;;;;;;20769;6764;117094;-73
2023/04/02 03:09:30;;;;;;;1.13;0.53;;;9.50;58.10;;;;;;20774;6761;118410;-73
2023/04/02 03:12:07;;;;;;;0.60;0.60;;;9.40;58.50;;;;;;20161;6797;119251;-72
2023/04/02 03:14:50;;;;;;;1.08;0.70;;;9.30;58.70;;;;;;20459;6806;278580;-73
2023/04/02 03:17:20;;;;;;;1.33;0.67;;;9.60;58.60;;;;;;20838;6743;117153;-74
2023/04/02 03:20:05;;;;;;;1.23;0.60;;;9.60;58.30;;;;;;20777;6766;116865;-73
2023/04/02 03:22:38;;;;;;;0.70;0.70;;;9.40;58.90;;;;;;20801;6750;118656;-75
2023/04/02 03:25:29;;;;;;;0.70;0.70;;;9.40;58.90;;;;;;20595;6762;117561;-73
2023/04/02 03:28:05;;;;;;;1.00;0.90;;;9.30;59.30;;;;;;20608;6746;338511;-74
2023/04/02 03:30:42;;;;;;;0.80;0.80;;;9.60;59.00;;;;;;20767;6762;118605;-73
2023/04/02 03:33:21;;;;;;;0.80;0.80;;;9.70;58.60;;;;;;20566;6755;285648;-73
2023/04/02 03:36:22;;;;;;;1.27;0.93;;;9.90;58.10;;;;;;20822;6744;118015;-73
2023/04/02 03:39:05;;;;;;;0.80;0.80;;;10.10;56.40;;;;;;20596;6745;281960;-74
2023/04/02 03:41:40;;;;;;;0.73;0.73;;;10.10;56.30;;;;;;20795;6760;120658;-73
2023/04/02 03:44:16;;;;;;;1.08;0.90;;;10.00;56.30;;;;;;20368;6746;338326;-73
2023/04/02 03:46:56;;;;;;;1.00;1.00;;;10.10;56.00;;;;;;20385;6776;308473;-73
2023/04/02 03:49:30;;;;;;;1.13;0.77;;;10.40;55.40;;;;;;20738;6775;118429;-73
2023/04/02 03:52:10;;;;;;;0.70;0.67;;;10.30;55.50;;;;;;20463;6817;117784;-73
2023/04/02 03:54:45;;;;;;;1.00;0.70;;;10.00;56.10;;;;;;20454;6760;314133;-73
2023/04/02 03:57:21;;;;;;;1.27;1.00;;;10.50;55.30;;;;;;20642;6735;305974;-73
2023/04/02 04:00:04;;;;;;;1.00;0.90;;;10.50;55.30;;;;;;20413;6765;289888;-73
2023/04/02 04:02:51;;;;;;;2.63;0.87;;;10.60;54.80;;;;;;20601;6776;117779;-74
2023/04/02 04:05:35;;;;;;;0.80;0.73;;;10.60;54.80;;;;;;20601;6750;316560;-73
2023/04/02 04:08:17;;;;;;;0.87;0.87;;;10.70;54.90;;;;;;20574;6761;278798;-73
2023/04/02 04:10:53;;;;;;;1.90;1.13;;;10.90;54.30;;;;;;20513;6776;277694;-73
2023/04/02 04:13:29;;;;;;;1.15;0.90;;;11.10;53.80;;;;;;20527;6763;337718;-71
2023/04/02 04:16:11;;;;;;;1.10;1.00;;;11.20;53.40;;;;;;20702;6775;120680;-73
2023/04/02 04:18:50;;;;;;;1.83;0.90;;;11.00;53.80;;;;;;20462;6774;302153;-73
2023/04/02 04:21:38;;;;;;;1.15;1.05;;;11.00;53.80;;;;;;20507;6772;309491;-73
2023/04/02 04:24:19;;;;;;;0.83;0.77;;;11.10;53.50;;;;;;20598;6793;122220;-73
2023/04/02 04:26:54;;;;;;;1.63;0.90;;;10.90;53.80;;;;;;20759;6754;120014;-73
2023/04/02 04:29:39;;;;;;;0.80;0.80;;;10.60;54.70;;;;;;20811;6746;120297;-73
2023/04/02 04:32:32;;;;;;;1.63;1.00;;;10.30;55.30;;;;;;20650;6735;312461;-73
2023/04/02 04:35:30;;;;;;;0.80;0.80;;;10.50;55.40;;;;;;20423;6753;306829;-73
2023/04/02 04:38:13;;;;;;;1.07;0.90;;;10.80;54.90;;;;;;20832;6745;117511;-73
2023/04/02 04:40:51;;;;;;;1.60;1.23;;;10.60;55.00;;;;;;20625;6745;306253;-73
2023/04/02 04:43:36;;;;;;;0.80;0.80;;;10.70;55.10;;;;;;20831;6736;117767;-73
2023/04/02 04:46:15;;;;;;;1.83;0.93;;;10.50;55.20;;;;;;20840;6736;117114;-73
2023/04/02 04:48:51;;;;;;;1.07;0.90;;;10.30;55.80;;;;;;20631;6736;276869;-73
2023/04/02 04:51:36;;;;;;;1.37;1.27;;;10.40;55.80;;;;;;20657;6737;335141;-73
2023/04/02 04:54:12;;;;;;;1.87;0.80;;;10.60;55.20;;;;;;20735;6737;117161;-73
2023/04/02 04:56:53;;;;;;;0.90;0.90;;;10.60;55.20;;;;;;20824;6737;120634;-73
2023/04/02 04:59:28;;;;;;;1.87;1.00;;;10.30;55.70;;;;;;20668;6737;280030;-76
2023/04/02 05:02:04;;;;;;;1.17;1.10;;;10.40;55.90;;;;;;20638;6795;305032;-73
2023/04/02 05:04:39;;;;;;;2.45;1.10;;;10.60;55.40;;;;;;20466;6737;339395;-73
2023/04/02 05:07:22;;;;;;;0.90;0.90;;;10.90;55.00;;;;;;20652;6737;309477;-72
2023/04/02 05:10:14;;;;;;;1.83;1.13;;;11.00;54.50;;;;;;20874;6737;124002;-72
2023/04/02 05:12:59;;;;;;;1.20;1.10;;;10.80;54.80;;;;;;20633;6737;338986;-75
2023/04/02 05:15:48;;;;;;;1.70;1.10;;;10.80;55.40;;;;;;20631;6766;282140;-72
2023/04/02 05:18:36;;;;;;;1.70;1.00;;;11.00;55.60;;;;;;20612;6810;280885;-71
2023/04/02 05:21:13;;;;;;;1.30;1.20;;;11.10;54.60;;;;;;20717;6781;119861;-72
2023/04/02 05:23:54;;;;;;;1.23;1.03;;;10.90;54.80;;;;;;20479;6790;279976;-74
2023/04/02 05:26:37;;;;;;;1.10;1.00;;;10.80;55.10;;;;;;20624;6752;336128;-72
2023/04/02 05:29:19;;;;;;;0.90;0.90;;;11.00;54.90;;;;;;20641;6752;276724;-71
2023/04/02 05:31:57;;;;;;;1.12;1.05;;;11.10;54.70;;;;;;20653;6752;336194;-72
2023/04/02 05:34:36;;;;;;;0.90;0.90;;;11.20;54.30;;;;;;20746;6752;117190;-72
2023/04/02 05:37:16;;;;;;;0.93;0.80;;;11.00;54.70;;;;;;20871;6752;117315;-71
2023/04/02 05:39:54;;;;;;;0.97;0.97;;;10.60;55.40;;;;;;20869;6752;117150;-72
2023/04/02 05:42:29;;;;;;;1.10;1.10;;;10.20;56.10;;;;;;20857;6798;118110;-70
2023/04/02 05:45:12;;;;;;;3.05;1.40;;;10.10;58.00;;;;;;20472;6757;338523;-72
2023/04/02 05:47:47;;;;;;;1.53;1.20;;;10.10;57.70;;;;;;20635;6758;306212;-73
2023/04/02 05:50:23;;;;;;;2.23;1.30;;;10.50;57.40;;;;;;20652;6758;282813;-74
2023/04/02 05:53:02;;;;;;;1.27;1.10;;;10.70;57.00;;;;;;20629;6758;277319;-71
2023/04/02 05:55:41;;;;;;;1.00;0.90;;;10.90;56.70;;;;;;20798;6758;117113;-72
2023/04/02 05:58:16;;;;;;;1.30;1.00;;;10.70;56.80;;;;;;20659;6758;297737;-72
2023/04/02 06:01:11;;;;;;;2.40;1.00;;;10.70;57.20;;;;;;20649;6758;306347;-71
2023/04/02 06:03:47;;;;;;;1.10;0.93;;;10.90;56.80;;;;;;20591;6758;308589;-71
2023/04/02 06:06:32;;;;;;;1.10;1.00;;;11.10;56.20;;;;;;20863;6758;117438;-73
2023/04/02 06:09:07;;;;;;;1.30;1.03;;;10.80;56.30;;;;;;20708;6800;117400;-72
2023/04/02 06:11:45;;;;;;;1.48;1.37;;;10.50;57.20;;;;;;20640;6758;278079;-72
2023/04/02 06:14:20;;;;;;;1.30;1.20;;;10.60;57.50;;;;;;20757;6758;117690;-71
2023/04/02 06:16:55;;;;;;;1.23;1.13;;;10.50;57.50;;;;;;20845;6758;117401;-71
2023/04/02 06:19:31;;;;;;;1.20;0.90;;;10.30;58.20;;;;;;20870;6758;117140;-71
2023/04/02 06:22:13;;;;;;;1.67;1.42;;;10.10;58.70;;;;;;20658;6758;277578;-71
2023/04/02 06:24:48;;;;;;;1.60;1.30;;;10.30;58.80;;;;;;20124;6856;310262;-72
2023/04/02 06:27:24;;;;;;;1.97;1.30;;;10.70;58.20;;;;;;20645;6758;277093;-73
2023/04/02 06:30:00;;;;;;;1.83;1.43;;;11.00;57.50;;;;;;20637;6758;307544;-72
2023/04/02 06:32:35;;;;;;;1.20;1.10;;;11.30;56.80;;;;;;20620;6800;278007;-74
2023/04/02 06:35:12;;;;;;;2.33;1.20;;;11.50;56.30;;;;;;20478;6752;339154;-72
2023/04/02 06:37:48;;;;;;;1.30;1.10;;;11.70;55.60;;;;;;20542;6789;337130;-71
2023/04/02 06:40:26;;;;;;;1.57;1.07;;;11.80;55.30;;;;;;20714;6789;117322;-72
2023/04/02 06:43:04;;;;;;;1.50;1.40;;;11.30;56.60;;;;;;20682;6791;119438;-72
2023/04/02 06:45:40;;;;;;;7.50;5.70;;;11.30;56.60;;;;;;20748;6779;118189;-73
2023/04/02 06:48:16;;;;;;;13.20;11.87;;;11.00;57.40;;;;;;20764;6765;117609;-72
2023/04/02 06:51:01;;;;;;;7.53;7.03;;;10.80;58.10;;;;;;20752;6778;118249;-72
2023/04/02 06:53:36;;;;;;;3.40;2.40;;;10.70;58.50;;;;;;20462;6763;309350;-71
2023/04/02 06:56:12;;;;;;;4.10;2.90;;;11.00;58.30;;;;;;20766;6764;121308;-71
2023/04/02 06:58:47;;;;;;;1.90;1.80;;;11.10;58.20;;;;;;20776;6764;117836;-72
2023/04/02 07:01:27;;;;;;;2.15;2.05;;;11.30;57.90;;;;;;20592;6764;300940;-71
2023/04/02 07:04:03;;;;;;;1.70;1.60;;;11.70;57.10;;;;;;20522;6770;311475;-71
2023/04/02 07:06:40;;;;;;;4.53;4.22;;;11.70;57.10;;;;;;20615;6753;309482;-72
2023/04/02 07:09:15;;;;;;;3.13;2.87;;;12.10;56.50;;;;;;20856;6753;117719;-72
2023/04/02 07:11:51;;;;;;;1.87;1.77;;;12.00;56.60;;;;;;20827;6753;117129;-71
2023/04/02 07:14:27;;;;;;;3.67;3.30;;;11.90;56.90;;;;;;20530;6753;279804;-70
2023/04/02 07:17:03;;;;;;;23.13;20.50;;;11.90;56.90;;;;;;20774;6763;117337;-70
2023/04/02 07:19:39;;;;;;;2.00;1.90;;;11.90;56.90;;;;;;20865;6736;117607;-69
2023/04/02 07:22:20;;;;;;;2.80;2.60;;;11.80;57.30;;;;;;20716;6776;117397;-71
2023/04/02 07:24:52;;;;;;;2.00;1.90;;;11.60;57.70;;;;;;20649;6738;117639;-71
2023/04/02 07:27:26;;;;;;;12.32;11.32;;;11.40;58.10;;;;;;20573;6766;342858;-71
2023/04/02 07:30:01;;;;;;;1.90;1.80;;;11.70;57.70;;;;;;20802;6760;118562;-70
2023/04/02 07:32:37;;;;;;;15.73;14.73;;;11.80;57.60;;;;;;20581;6757;278183;-70
2023/04/02 07:35:13;;;;;;;3.97;3.67;;;12.30;56.50;;;;;;20385;6774;290026;-70
2023/04/02 07:37:48;;;;;;;9.85;9.05;;;12.30;56.60;;;;;;20565;6757;310253;-69
2023/04/02 07:40:30;;;;;;;8.00;7.40;;;12.60;55.60;;;;;;20828;6743;117014;-70
2023/04/02 07:43:05;;;;;;;3.00;2.80;;;12.50;55.60;;;;;;20569;6743;307944;-70
2023/04/02 07:45:35;;;;;;;5.50;5.20;;;12.60;54.80;;;;;;20757;6780;117727;-70
2023/04/02 07:48:11;;;;;;;6.20;5.80;;;12.60;55.00;;;;;;20484;6791;282469;-70
2023/04/02 07:50:47;;;;;;;6.20;5.80;;;12.60;55.00;;;;;;20760;6766;117715;-71
2023/04/02 07:53:32;;;;;;;5.70;5.25;;;12.50;55.10;;;;;;20561;6766;279916;-73
2023/04/02 07:56:07;;;;;;;4.10;3.87;;;12.60;54.40;;;;;;20798;6766;117130;-72
2023/04/02 07:58:43;;;;;;;6.30;5.90;;;12.50;54.70;;;;;;20746;6769;117144;-71
2023/04/02 08:01:25;;;;;;;6.03;5.70;;;12.30;55.30;;;;;;20792;6769;117272;-72
2023/04/02 08:04:03;;;;;;;7.67;7.20;;;12.10;55.80;;;;;;20705;6769;120255;-74
2023/04/02 08:06:38;;;;;;;3.80;3.60;;;12.00;56.40;;;;;;20780;6766;119216;-73
2023/04/02 08:09:17;;;;;;;5.93;5.50;;;11.90;56.70;;;;;;20582;6765;335617;-71
2023/04/02 08:11:52;;;;;;;4.33;4.03;;;12.20;56.20;;;;;;20788;6765;117079;-72
2023/04/02 08:14:29;;;;;;;3.57;3.20;;;12.30;56.00;;;;;;20672;6765;118156;-72
2023/04/02 08:17:05;;;;;;;5.40;4.90;;;12.20;56.30;;;;;;20767;6764;119284;-73
2023/04/02 08:19:41;;;;;;;2.90;2.70;;;12.10;56.70;;;;;;20586;6764;281003;-73
2023/04/02 08:22:17;;;;;;;0.80;0.70;;;12.70;53.60;;;;;;20625;6749;307137;-73
2023/04/02 08:24:55;;;;;;;1.30;0.70;;;12.70;53.50;;;;;;20625;6764;117986;-74
2023/04/02 08:27:29;;;;;;;0.60;0.60;;;12.80;53.80;;;;;;20728;6785;118284;-73
2023/04/02 08:30:05;;;;;;;15.43;11.07;;;12.60;54.30;;;;;;20831;6756;120580;-73
2023/04/02 08:32:41;;;;;;;1.90;1.10;;;12.50;54.90;;;;;;20788;6762;117371;-75
2023/04/02 08:35:17;;;;;;;1.80;0.43;;;12.50;55.30;;;;;;20594;6818;117696;-73
2023/04/02 08:37:52;;;;;;;1.27;0.70;;;12.40;55.50;;;;;;20756;6777;117271;-72
2023/04/02 08:40:27;;;;;;;1.03;0.60;;;12.40;55.50;;;;;;20766;6780;117264;-73
2023/04/02 08:43:27;;;;;;;1.70;0.70;;;12.40;55.70;;;;;;20609;6764;302834;-72
2023/04/02 08:46:05;;;;;;;0.70;0.70;;;12.60;54.30;;;;;;20630;6749;277830;-72
2023/04/02 08:48:41;;;;;;;0.77;0.77;;;13.50;51.80;;;;;;20626;6745;338016;-73
2023/04/02 08:51:20;;;;;;;0.90;0.70;;;13.50;51.80;;;;;;20839;6747;117640;-77
2023/04/02 08:53:55;;;;;;;0.50;0.50;;;13.40;52.00;;;;;;20781;6747;116544;-74
2023/04/02 08:56:31;;;;;;;1.17;0.53;;;13.10;52.40;;;;;;20837;6758;117107;-73
2023/04/02 08:59:11;;;;;;;0.70;0.60;;;13.10;51.90;;;;;;20632;6749;306637;-73
2023/04/02 09:02:03;;;;;;;6.57;6.17;;;13.10;51.30;;;;;;20609;6761;290315;-73
2023/04/02 09:04:40;;;;;;;3.33;3.12;;;13.40;50.20;;;;;;20451;6763;339433;-74
2023/04/02 09:07:16;;;;;;;10.73;9.77;;;13.80;50.10;;;;;;20825;6751;117583;-72
2023/04/02 09:09:52;;;;;;;2.30;2.20;;;13.80;50.90;;;;;;20596;6767;307711;-72
2023/04/02 09:12:30;;;;;;;1.37;1.37;;;13.80;49.60;;;;;;20577;6764;307855;-73
2023/04/02 09:15:11;;;;;;;1.55;1.30;;;14.30;49.20;;;;;;20444;6749;340380;-75
2023/04/02 09:17:48;;;;;;;13.83;12.53;;;14.30;49.20;;;;;;20847;6747;117020;-74
2023/04/02 09:20:24;;;;;;;5.23;4.73;;;14.30;50.00;;;;;;20762;6760;117428;-73
2023/04/02 09:23:03;;;;;;;9.65;8.95;;;14.00;50.70;;;;;;20566;6754;277953;-81
2023/04/02 09:25:39;;;;;;;4.23;3.93;;;14.40;48.00;;;;;;20578;6764;284201;-75
2023/04/02 09:28:15;;;;;;;2.40;2.30;;;14.40;48.00;;;;;;20877;6747;117600;-75
2023/04/02 09:31:04;;;;;;;7.03;6.55;;;14.40;48.20;;;;;;20547;6760;306847;-75
2023/04/02 09:33:40;;;;;;;15.60;14.10;;;14.40;48.20;;;;;;20738;6781;117201;-75
2023/04/02 09:36:32;;;;;;;9.80;9.00;;;14.40;49.00;;;;;;20637;6758;292240;-77
2023/04/02 09:39:11;;;;;;;1.37;1.27;;;14.50;48.30;;;;;;20835;6766;117831;-76
2023/04/02 09:41:46;;;;;;;1.10;1.10;;;14.40;48.90;;;;;;20640;6766;307707;-73
2023/04/02 09:44:22;;;;;;;3.80;3.50;;;14.50;48.00;;;;;;20700;6771;116872;-73
2023/04/02 09:47:05;;;;;;;4.32;3.50;;;14.70;47.90;;;;;;20491;6789;336321;-74
2023/04/02 09:49:40;;;;;;;0.77;0.70;;;14.70;47.90;;;;;;20760;6791;117180;-75
2023/04/02 09:52:19;;;;;;;0.40;0.40;;;14.70;48.40;;;;;;20779;6772;117191;-77
2023/04/02 09:55:04;;;;;;;3.50;3.27;;;14.60;49.10;;;;;;20643;6758;118134;-72
2023/04/02 09:57:40;;;;;;;1.77;1.67;;;14.50;49.70;;;;;;20728;6776;117748;-72
2023/04/02 10:00:20;;;;;;;0.80;0.40;;;14.40;50.00;;;;;;20502;6789;312822;-73
2023/04/02 10:03:04;;;;;;;0.90;0.90;;;14.70;47.50;;;;;;20442;6804;281519;-73
2023/04/02 10:05:43;;;;;;;1.83;1.73;;;15.20;47.10;;;;;;20493;6801;117293;-76
2023/04/02 10:08:15;;;;;;;1.30;0.53;;;15.30;47.40;;;;;;20685;6795;117274;-73
2023/04/02 10:10:54;;;;;;;1.70;1.60;;;15.20;48.00;;;;;;20735;6765;118035;-74
2023/04/02 10:13:26;;;;;;;0.87;0.87;;;15.10;48.70;;;;;;20709;6783;117329;-73
2023/04/02 10:16:11;;;;;;;1.62;1.52;;;15.30;47.30;;;;;;20499;6783;337854;-75
2023/04/02 10:18:57;;;;;;;2.05;1.95;;;15.30;47.30;;;;;;20458;6803;308336;-75
2023/04/02 10:21:31;;;;;;;2.30;2.20;;;15.70;45.50;;;;;;20747;6798;117245;-75
2023/04/02 10:24:11;;;;;;;2.42;2.22;;;15.80;45.40;;;;;;20443;6798;309785;-74
2023/04/02 10:27:10;;;;;;;0.33;0.33;;;15.80;46.00;;;;;;20753;6783;117088;-73
2023/04/02 10:29:46;;;;;;;0.43;0.43;;;15.90;46.10;;;;;;20801;6765;121785;-74
2023/04/02 10:32:21;;;;;;;0.30;0.30;;;15.70;46.80;;;;;;20548;6779;287844;-73
2023/04/02 10:34:57;;;;;;;0.30;0.30;;;15.90;44.40;;;;;;20603;6779;118007;-74
2023/04/02 10:37:49;;;;;;;0.53;0.40;;;15.90;45.00;;;;;;20798;6764;118087;-74
2023/04/02 10:40:28;;;;;;;0.47;0.47;;;15.80;46.10;;;;;;20792;6765;118627;-75
2023/04/02 10:43:34;;;;;;;0.30;0.20;;;15.70;46.70;;;;;;20588;6765;280139;-75
2023/04/02 10:46:29;;;;;;;1.52;0.47;;;16.00;45.00;;;;;;20566;6765;307313;-76
2023/04/02 10:49:25;;;;;;;0.40;0.40;;;16.30;42.90;;;;;;20760;6764;117725;-73
2023/04/02 10:52:02;;;;;;;0.40;0.40;;;15.80;45.30;;;;;;20713;6785;117163;-74
2023/04/02 10:54:40;;;;;;;0.43;0.30;;;15.80;45.20;;;;;;20378;6796;280716;-75
2023/04/02 10:57:35;;;;;;;0.40;0.40;;;15.90;45.20;;;;;;20513;6781;301174;-73
2023/04/02 11:00:17;;;;;;;0.40;0.40;;;16.20;44.10;;;;;;20484;6779;339129;-71
2023/04/02 11:03:04;;;;;;;0.47;0.47;;;16.60;43.30;;;;;;20637;6786;118448;-72
2023/04/02 11:05:43;;;;;;;0.40;0.40;;;16.50;44.10;;;;;;20472;6785;338128;-72
2023/04/02 11:08:17;;;;;;;0.57;0.57;;;16.50;43.50;;;;;;20757;6767;117254;-72
2023/04/02 11:10:59;;;;;;;0.80;0.40;;;16.40;44.30;;;;;;20469;6796;277444;-72
2023/04/02 11:13:36;;;;;;;0.40;0.40;;;16.70;42.80;;;;;;20516;6780;279261;-73
2023/04/02 11:16:14;;;;;;;0.30;0.30;;;16.70;42.60;;;;;;20506;6785;279043;-73
2023/04/02 11:19:13;;;;;;;0.60;0.30;;;16.90;42.40;;;;;;20510;6784;309673;-75
2023/04/02 11:22:12;;;;;;;0.47;0.47;;;17.00;42.30;;;;;;20493;6779;307239;-78
2023/04/02 11:24:53;;;;;;;0.43;0.30;;;16.70;42.30;;;;;;20639;6779;118310;-75
2023/04/02 11:27:33;;;;;;;1.60;0.60;;;16.70;42.30;;;;;;20708;6794;117675;-75
2023/04/02 11:30:16;;;;;;;0.87;0.50;;;16.30;43.60;;;;;;20712;6784;117663;-75
2023/04/02 11:32:51;;;;;;;0.80;0.80;;;16.00;43.30;;;;;;20527;6775;330965;-76
2023/04/02 11:35:30;;;;;;;0.70;0.70;;;16.00;43.00;;;;;;20425;6819;313216;-76
2023/04/02 11:38:10;;;;;;;0.60;0.60;;;16.20;42.90;;;;;;20689;6784;117019;-75
2023/04/02 11:40:55;;;;;;;0.70;0.70;;;16.10;43.80;;;;;;20686;6779;120746;-75
2023/04/02 11:43:37;;;;;;;1.70;1.60;;;15.80;45.60;;;;;;20519;6772;307194;-74
2023/04/02 11:46:15;;;;;;;1.20;1.10;;;15.90;44.80;;;;;;20799;6777;118383;-74
2023/04/02 11:48:53;;;;;;;1.30;1.23;;;15.80;45.50;;;;;;20627;6751;276753;-76
2023/04/02 11:51:30;;;;;;;0.90;0.90;;;15.80;45.20;;;;;;20795;6761;117506;-74
2023/04/02 11:54:05;;;;;;;1.00;0.90;;;15.70;45.70;;;;;;20418;6786;282769;-74
2023/04/02 11:56:47;;;;;;;0.80;0.80;;;15.70;44.90;;;;;;20440;6770;307474;-76
2023/04/02 11:59:23;;;;;;;0.80;0.80;;;15.80;44.50;;;;;;20689;6803;117117;-76
2023/04/02 12:02:15;;;;;;;0.67;0.60;;;15.60;45.10;;;;;;20724;6785;117141;-75
2023/04/02 12:05:02;;;;;;;0.77;0.53;;;15.20;45.70;;;;;;20420;6871;119285;-75
2023/04/02 12:07:56;;;;;;;0.70;0.70;;;14.80;45.30;;;;;;20517;6780;307581;-73
2023/04/02 12:10:23;;;;;;;0.70;0.70;;;14.70;45.90;;;;;;20738;6777;117460;-72
2023/04/02 12:13:00;;;;;;;0.90;0.90;;;14.70;45.90;;;;;;20546;6773;307097;-74
2023/04/02 12:15:35;;;;;;;0.87;0.87;;;14.80;46.70;;;;;;20811;6758;117166;-73
2023/04/02 12:18:22;;;;;;;0.90;0.90;;;14.80;46.50;;;;;;20786;6760;119735;-72
2023/04/02 12:20:58;;;;;;;0.70;0.70;;;14.60;47.10;;;;;;20795;6777;117598;-72
2023/04/02 12:23:35;;;;;;;0.80;0.80;;;14.30;47.60;;;;;;20699;6791;117215;-73
2023/04/02 12:26:31;;;;;;;1.37;1.27;;;14.20;48.00;;;;;;20791;6776;116459;-75
2023/04/02 12:29:12;;;;;;;1.00;1.00;;;14.00;48.30;;;;;;20841;6750;118991;-74
2023/04/02 12:31:48;;;;;;;0.57;0.57;;;14.00;48.70;;;;;;20565;6766;306793;-73
2023/04/02 12:34:24;;;;;;;0.85;0.85;;;14.30;46.90;;;;;;20427;6773;314023;-74
2023/04/02 12:40:35;;;;;;;1.30;1.20;;;14.70;46.40;;;;;;20533;6778;308222;-76
2023/04/02 12:43:23;;;;;;;1.30;1.20;;;14.90;44.90;;;;;;20715;6774;119555;-76
2023/04/02 12:45:58;;;;;;;1.30;1.20;;;14.80;45.70;;;;;;20797;6774;117118;-76
2023/04/02 12:48:34;;;;;;;1.67;1.57;;;14.60;46.60;;;;;;20711;6776;117775;-76
2023/04/02 12:51:10;;;;;;;1.03;0.97;;;14.40;47.10;;;;;;20573;6795;118656;-76
2023/04/02 12:53:49;;;;;;;2.50;2.40;;;14.30;47.50;;;;;;20428;6791;280158;-75
2023/04/02 12:56:27;;;;;;;1.40;1.40;;;14.50;46.50;;;;;;20733;6775;117642;-75
2023/04/02 12:59:02;;;;;;;1.20;1.03;;;14.60;46.80;;;;;;20522;6766;278769;-75
2023/04/02 13:01:38;;;;;;;1.60;1.60;;;14.80;46.10;;;;;;20503;6760;335686;-74
2023/04/02 13:04:24;;;;;;;1.90;1.80;;;15.50;45.40;;;;;;20510;6791;280373;-76
2023/04/02 13:06:51;;;;;;;2.35;2.15;;;15.50;44.60;;;;;;20594;6750;335932;-75
2023/04/02 13:09:29;;;;;;;1.60;1.50;;;15.80;44.60;;;;;;20566;6764;282363;-74
2023/04/02 13:12:05;;;;;;;1.48;1.48;;;16.00;44.40;;;;;;20507;6773;339168;-75
2023/04/02 13:14:40;;;;;;;1.30;1.30;;;16.20;44.20;;;;;;20569;6791;121454;-73
2023/04/02 13:17:42;;;;;;;2.10;2.00;;;16.20;45.10;;;;;;20775;6769;117427;-74
2023/04/02 13:20:38;;;;;;;1.80;1.70;;;16.00;45.90;;;;;;20601;6768;309499;-74
2023/04/02 13:23:27;;;;;;;1.13;1.13;;;16.50;43.60;;;;;;20620;6744;281586;-74
2023/04/02 13:26:15;;;;;;;1.07;1.07;;;16.50;43.60;;;;;;20821;6755;117545;-74
2023/04/02 13:29:13;;;;;;;0.80;0.80;;;16.50;44.60;;;;;;20816;6753;117028;-74
2023/04/02 13:31:49;;;;;;;2.47;2.27;;;16.30;45.20;;;;;;20901;6739;117213;-75
2023/04/02 13:34:25;;;;;;;1.10;0.87;;;16.20;45.40;;;;;;20612;6731;284227;-73
2023/04/02 13:37:00;;;;;;;0.80;0.80;;;16.30;42.90;;;;;;20669;6722;276959;-74
2023/04/02 13:39:36;;;;;;;0.60;0.60;;;16.60;42.70;;;;;;20894;6735;118222;-74
2023/04/02 13:42:14;;;;;;;0.80;0.80;;;16.60;43.50;;;;;;20680;6737;310013;-74
2023/04/02 13:44:50;;;;;;;0.80;0.80;;;16.70;42.30;;;;;;20790;6737;119079;-75